Latest Weather Observations for Birdsville

IDQ60801

Issued at 9:22 am EST Monday 19 August 2019 (issued every 10 minutes, with the page automatically refreshed every 10 minutes)

About weather observations | Map of weather stations | Latest weather observations for QLD | Other Formats
Station Details ID: 038026 Name: BIRDSVILLE AIRPORT Lat: -25.90 Lon: 139.35 Height: 46.6 m
Data from the previous 72 hours. | See also: Recent months at Birdsville
Date/Time
EST
Temp
°C
App
Temp
°C
Dew
Point
°C
Rel
Hum
%
Delta-T
°C
Wind Press
QNH
hPa
Press
MSL
hPa
Rain since
9am
mm
Dir  Spd
km/h
Gust
km/h
Spd
kts
Gust
kts
19/09:00am 10.8 2.9 2.1 55 3.7 SSW 33 43 18 23 1028.9 1028.9 0.0
19/08:30am 9.8 2.1 2.2 59 3.2 SSW 32 41 17 22 1028.4 1028.4 0.0
19/08:00am 8.3 2.3 1.2 61 2.9 SSW 22 30 12 16 1027.9 1027.9 0.0
19/07:30am 7.5 2.0 0.9 63 2.6 SSW 19 22 10 12 1027.4 1027.4 0.0
19/07:00am 7.9 1.9 1.1 62 2.7 SSW 22 28 12 15 1027.0 1027.0 0.0
19/06:30am 8.0 2.0 1.0 61 2.8 SSW 22 28 12 15 1026.6 1026.6 0.0
19/06:00am 7.5 2.3 0.0 59 2.9 SSW 17 20 9 11 1026.2 1026.1 0.0
19/05:30am 8.2 2.4 0.0 56 3.2 SSW 20 26 11 14 1025.6 1025.5 0.0
19/05:00am 9.0 2.4 -0.3 52 3.7 SSW 24 28 13 15 1025.0 1024.9 0.0
19/04:30am 9.5 2.9 -0.7 49 4.0 SSW 24 30 13 16 1024.7 1024.6 0.0
19/04:00am 9.5 2.7 -1.5 46 4.2 SSW 24 30 13 16 1024.6 1024.5 0.0
19/03:30am 9.8 3.0 -2.2 43 4.6 SSW 24 30 13 16 1024.5 1024.4 0.0
19/03:00am 9.2 2.9 -3.7 40 4.7 SW 20 24 11 13 1024.6 1024.5 0.0
19/02:30am 8.2 1.9 -4.2 41 4.4 SW 20 24 11 13 1024.6 1024.5 0.0
19/02:00am 8.2 2.3 -5.3 38 4.7 SW 17 19 9 10 1024.3 1024.2 0.0
19/01:30am 9.1 3.7 -4.8 37 4.9 WSW 15 17 8 9 1024.4 1024.3 0.0
19/01:00am 8.5 3.0 -5.0 38 4.7 SW 15 17 8 9 1024.3 1024.2 0.0
19/12:30am 9.5 4.8 -4.8 36 5.1 SW 11 13 6 7 1024.1 1024.0 0.0
19/12:00am 9.0 4.0 -4.5 38 4.8 SW 13 17 7 9 1024.1 1024.0 0.0
 
Date/Time
EST
Temp
°C
App
Temp
°C
Dew
Point
°C
Rel
Hum
%
Delta-T
°C
Wind Press
QNH
hPa
Press
MSL
hPa
Rain since
9am
mm
Dir  Spd
km/h
Gust
km/h
Spd
kts
Gust
kts
18/11:30pm 9.4 4.4 -4.5 37 5.0 SW 13 15 7 8 1023.9 1023.8 0.0
18/11:00pm 9.6 4.6 -4.0 38 4.9 SW 13 13 7 7 1023.6 1023.5 0.0
18/10:30pm 10.6 6.1 -3.5 37 5.3 SW 11 13 6 7 1023.5 1023.4 0.0
18/10:00pm 10.3 5.4 -3.4 38 5.1 SW 13 15 7 8 1023.4 1023.3 0.0
18/09:30pm 11.2 6.7 -2.9 37 5.4 SW 11 13 6 7 1023.3 1023.2 0.0
18/09:00pm 12.2 7.3 -3.2 34 5.9 SW 13 15 7 8 1023.1 1023.0 0.0
18/08:30pm 13.9 9.1 -2.5 32 6.5 SSW 13 15 7 8 1022.6 1022.5 0.0
18/08:00pm 15.2 9.6 -2.7 29 7.1 SSW 17 20 9 11 1022.0 1021.9 0.0
18/07:30pm 16.5 10.1 -2.0 28 7.6 SW 22 28 12 15 1021.4 1021.3 0.0
18/07:00pm 17.5 10.3 -2.2 26 8.1 SW 26 32 14 17 1020.8 1020.7 0.0
18/06:30pm 18.5 10.9 -1.9 25 8.6 SW 28 37 15 20 1020.3 1020.2 0.0
18/06:00pm 20.0 11.2 -1.2 24 9.1 SW 35 41 19 22 1019.5 1019.4 0.0
18/05:30pm 21.1 12.1 0.3 25 9.3 SW 37 48 20 26 1019.1 1019.0 0.0
18/05:00pm 21.7 12.7 0.3 24 9.6 SW 37 48 20 26 1018.6 1018.5 0.0
18/04:30pm 22.2 14.0 0.1 23 10.0 SW 33 46 18 25 1018.3 1018.2 0.0
18/04:00pm 22.5 13.2 0.4 23 10.0 SW 39 54 21 29 1018.1 1018.0 0.0
18/03:30pm 22.8 13.5 0.6 23 10.2 SW 39 52 21 28 1018.1 1018.0 0.0
18/03:00pm 23.7 14.6 2.0 24 10.3 SW 39 48 21 26 1018.2 1018.1 0.0
18/02:30pm 22.9 13.3 1.3 24 10.0 SW 41 52 22 28 1018.2 1018.1 0.0
18/02:00pm 23.3 13.5 2.2 25 10.0 SW 43 56 23 30 1018.2 1018.1 0.0
18/01:30pm 22.7 12.9 2.2 26 9.7 SW 43 52 23 28 1018.3 1018.2 0.0
18/01:00pm 22.6 12.7 2.7 27 9.5 SW 44 54 24 29 1018.7 1018.6 0.0
18/12:30pm 21.6 11.9 2.8 29 8.9 SW 43 57 23 31 1019.0 1018.9 0.0
18/12:00pm 21.7 13.0 4.3 32 8.5 SW 39 50 21 27 1019.2 1019.1 0.0
18/11:30am 21.1 11.7 4.6 34 8.1 SSW 43 52 23 28 1019.1 1019.0 0.0
18/11:00am 20.7 11.2 4.7 35 7.8 SW 44 54 24 29 1019.2 1019.1 0.0
18/10:30am 20.0 10.0 4.1 35 7.6 SSW 46 57 25 31 1018.8 1018.7 0.0
18/10:00am 20.1 10.1 4.2 35 7.6 SW 46 54 25 29 1018.5 1018.4 0.0
18/09:30am 19.7 9.9 3.4 34 7.7 SSW 44 57 24 31 1017.9 1017.8 0.0
18/09:00am 20.1 12.3 2.9 32 8.1 SW 33 46 18 25 1017.5 1017.4 0.0
18/08:30am 18.8 12.8 1.3 31 7.9 SW 22 26 12 14 1017.1 1017.0 0.0
18/08:00am 17.7 12.0 -1.0 28 7.9 WSW 19 24 10 13 1016.7 1016.6 0.0
18/07:30am 16.2 10.9 -3.8 25 7.9 WNW 15 19 8 10 1016.5 1016.4 0.0
18/07:00am 17.1 11.8 -3.6 24 8.3 WNW 15 20 8 11 1015.7 1015.7 0.0
18/06:30am 18.1 11.1 -3.9 22 8.8 W 24 37 13 20 1015.5 1015.5 0.0
18/06:16am 15.8 9.6 -5.3 23 8.0 N 19 43 10 23 1014.9 1014.9 0.0
18/06:00am 17.3 12.3 -4.6 22 8.6 NNE 13 15 7 8 1013.5 1013.5 0.0
18/05:30am 17.4 11.2 -4.5 22 8.6 N 19 26 10 14 1013.3 1013.3 0.0
18/05:00am 16.8 11.8 -4.4 23 8.3 NNE 13 19 7 10 1013.1 1013.1 0.0
18/04:30am 14.9 9.8 -5.5 24 7.6 NNE 13 17 7 9 1012.5 1012.5 0.0
18/04:00am 16.8 10.5 -4.4 23 8.3 NNE 20 24 11 13 1012.7 1012.7 0.0
18/03:30am 13.9 8.1 -4.8 27 7.0 NE 17 19 9 10 1012.8 1012.8 0.0
18/03:00am 14.5 9.0 -5.3 25 7.4 NE 15 19 8 10 1013.2 1013.2 0.0
18/02:30am 13.4 7.5 -5.2 27 6.9 NE 17 19 9 10 1013.5 1013.5 0.0
18/02:00am 13.7 8.3 -4.9 27 7.0 NE 15 17 8 9 1013.7 1013.7 0.0
18/01:30am 14.4 9.4 -4.3 27 7.2 NE 13 15 7 8 1014.1 1014.1 0.0
18/01:00am 15.5 10.2 -3.9 26 7.6 NE 15 17 8 9 1014.2 1014.2 0.0
18/12:30am 15.6 10.7 -3.8 26 7.6 NE 13 13 7 7 1014.4 1014.4 0.0
18/12:00am 16.2 11.6 -4.4 24 8.0 NE 11 13 6 7 1014.6 1014.6 0.0
 
Date/Time
EST
Temp
°C
App
Temp
°C
Dew
Point
°C
Rel
Hum
%
Delta-T
°C
Wind Press
QNH
hPa
Press
MSL
hPa
Rain since
9am
mm
Dir  Spd
km/h
Gust
km/h
Spd
kts
Gust
kts
17/11:30pm 16.5 11.8 -4.7 23 8.2 NE 11 13 6 7 1014.7 1014.7 0.0
17/11:00pm 17.3 13.2 -3.4 24 8.3 NE 9 11 5 6 1014.8 1014.8 0.0
17/10:30pm 19.0 15.3 -3.2 22 9.1 ENE 7 9 4 5 1014.8 1014.8 0.0
17/10:00pm 19.1 15.1 -2.5 23 9.0 ENE 9 9 5 5 1014.9 1014.9 0.0
17/09:30pm 20.2 16.7 -1.6 23 9.4 ENE 7 11 4 6 1015.0 1015.0 0.0
17/09:00pm 20.0 16.5 -1.7 23 9.3 NE 7 9 4 5 1015.0 1015.0 0.0
17/08:30pm 21.4 17.4 -5.4 16 10.8 NE 7 9 4 5 1015.0 1015.0 0.0
17/08:00pm 22.6 20.1 -3.7 17 11.1 CALM 0 0 0 0 1014.8 1014.8 0.0
17/07:30pm 23.7 21.3 -2.8 17 11.5 CALM 0 0 0 0 1014.5 1014.5 0.0
17/07:00pm 24.9 20.4 -6.4 12 12.8 WNW 9 11 5 6 1014.2 1014.2 0.0
17/06:30pm 26.8 22.4 -6.1 11 13.8 WNW 9 11 5 6 1014.0 1014.0 0.0
17/06:00pm 29.5 26.7 -6.7 9 15.3 CALM 0 4 0 2 1013.8 1013.8 0.0
17/05:30pm 29.8 25.3 -6.4 9 15.5 N 9 15 5 8 1013.6 1013.6 0.0
17/05:00pm 30.5 26.5 -5.9 9 15.8 NW 7 17 4 9 1013.5 1013.5 0.0
17/04:30pm 30.1 26.0 -6.2 9 15.6 NW 7 13 4 7 1013.5 1013.5 0.0
17/04:00pm 30.1 24.9 -6.2 9 15.6 N 13 20 7 11 1013.6 1013.6 0.0
17/03:30pm 30.2 25.0 -6.1 9 15.6 NNW 13 26 7 14 1013.8 1013.8 0.0
17/03:00pm 29.9 25.2 -5.0 10 15.3 NNW 11 19 6 10 1014.0 1014.0 0.0
17/02:30pm 29.9 25.6 -5.0 10 15.3 NW 9 17 5 9 1014.4 1014.4 0.0
17/02:00pm 29.5 24.4 -5.3 10 15.1 NNW 13 19 7 10 1014.9 1014.9 0.0
17/01:30pm 28.9 24.6 -4.5 11 14.6 NNW 9 19 5 10 1015.3 1015.3 0.0
17/01:00pm 28.4 23.3 -4.9 11 14.4 N 13 20 7 11 1015.9 1015.8 0.0
17/12:30pm 28.1 22.5 -2.9 13 13.9 NNE 17 26 9 14 1016.5 1016.4 0.0
17/12:00pm 27.8 21.6 -0.3 16 13.1 NNE 22 30 12 16 1016.9 1016.8 0.0
17/11:30am 26.4 19.8 -0.6 17 12.4 NNE 24 28 13 15 1017.2 1017.1 0.0
17/11:00am 25.4 19.5 1.5 21 11.3 NE 22 28 12 15 1017.6 1017.5 0.0
17/10:30am 23.9 18.3 0.9 22 10.7 NE 20 26 11 14 1017.9 1017.8 0.0
17/10:00am 21.9 16.6 -0.8 22 10.0 NE 17 20 9 11 1018.1 1018.0 0.0
17/09:30am 18.8 13.4 -1.6 25 8.6 NE 17 19 9 10 1018.2 1018.1 0.0
17/09:00am 16.3 11.5 -2.2 28 7.5 ESE 13 15 7 8 1018.3 1018.2 0.0
17/08:30am 12.8 8.6 -4.3 30 6.4 ESE 9 11 5 6 1018.2 1018.1 0.0
17/08:00am 10.7 6.4 -4.9 33 5.6 ESE 9 11 5 6 1017.9 1017.8 0.0
17/07:30am 8.6 4.0 -7.5 31 5.3 ESE 9 11 5 6 1017.6 1017.5 0.0
17/07:00am 8.6 4.5 -6.7 33 5.1 ESE 7 9 4 5 1017.5 1017.4 0.0
17/06:30am 8.2 3.7 -7.1 33 5.1 ESE 9 11 5 6 1017.3 1017.2 0.0
17/06:00am 8.7 4.8 -6.6 33 5.2 ESE 6 7 3 4 1017.1 1017.0 0.0
17/05:30am 9.1 5.6 -2.5 44 4.4 SSE 6 7 3 4 1016.7 1016.6 0.0
17/05:00am 9.0 5.1 -4.5 38 4.8 SSW 7 11 4 6 1016.7 1016.6 0.0
17/04:30am 10.0 7.4 -2.0 43 4.6 SSW 2 15 1 8 1016.7 1016.6 0.0
17/04:00am 11.9 7.5 -5.5 29 6.3 ESE 9 9 5 5 1016.7 1016.6 0.0
17/03:30am 12.0 7.7 -5.0 30 6.2 ESE 9 11 5 6 1016.9 1016.8 0.0
17/03:00am 11.2 6.9 -5.3 31 5.9 ESE 9 9 5 5 1017.0 1016.9 0.0
17/02:30am 13.9 10.3 -3.4 30 6.7 ESE 6 7 3 4 1017.1 1017.0 0.0
17/02:00am 12.8 9.1 -4.8 29 6.5 ESE 6 7 3 4 1017.4 1017.3 0.0
17/01:30am 13.3 9.6 -4.3 29 6.7 SE 6 7 3 4 1017.7 1017.6 0.0
17/01:00am 14.2 10.6 -4.0 28 7.0 SSE 6 7 3 4 1017.6 1017.5 0.0
17/12:30am 14.6 10.5 -3.2 29 7.0 SSE 9 9 5 5 1017.7 1017.6 0.0
17/12:00am 13.2 9.4 -4.0 30 6.5 S 7 9 4 5 1017.9 1017.8 0.0
 
Date/Time
EST
Temp
°C
App
Temp
°C
Dew
Point
°C
Rel
Hum
%
Delta-T
°C
Wind Press
QNH
hPa
Press
MSL
hPa
Rain since
9am
mm
Dir  Spd
km/h
Gust
km/h
Spd
kts
Gust
kts
16/11:30pm 13.7 8.8 -3.5 30 6.6 SW 13 15 7 8 1018.1 1018.0 0.0
16/11:00pm 17.0 13.5 -3.1 25 8.1 ESE 6 7 3 4 1018.1 1018.0 0.0
16/10:30pm 17.4 13.7 -2.8 25 8.2 ESE 7 9 4 5 1018.1 1018.0 0.0
16/10:00pm 16.9 13.1 -3.8 24 8.2 ESE 7 11 4 6 1018.3 1018.2 0.0
16/09:30pm 18.0 14.5 -2.8 24 8.5 SSE 6 9 3 5 1018.4 1018.3 0.0
16/09:00pm 18.6 15.0 -2.3 24 8.7 SE 7 9 4 5 1018.3 1018.2 0.0
16/08:30pm 19.4 15.7 -4.1 20 9.5 S 6 7 3 4 1018.1 1018.0 0.0
16/08:00pm 20.0 15.7 -5.0 18 10.0 S 9 11 5 6 1018.0 1017.9 0.0
16/07:30pm 21.7 17.9 -3.6 18 10.6 SSW 7 9 4 5 1017.8 1017.7 0.0
16/07:00pm 22.6 18.3 -4.5 16 11.2 SW 9 11 5 6 1017.5 1017.4 0.0
16/06:30pm 24.4 20.1 -4.8 14 12.2 SSW 9 11 5 6 1017.3 1017.2 0.0
16/06:00pm 27.1 23.1 -5.9 11 13.9 W 7 11 4 6 1017.1 1017.0 0.0
16/05:30pm 27.9 23.6 -5.2 11 14.2 W 9 13 5 7 1017.0 1016.9 0.0
16/05:00pm 27.9 22.4 -5.2 11 14.2 WNW 15 19 8 10 1016.8 1016.7 0.0
16/04:30pm 28.5 24.1 -6.0 10 14.7 W 9 19 5 10 1016.8 1016.7 0.0
16/04:00pm 28.4 22.2 -4.9 11 14.4 WNW 19 26 10 14 1017.0 1016.9 0.0
16/03:30pm 28.1 23.0 -5.1 11 14.3 WNW 13 24 7 13 1017.2 1017.1 0.0
16/03:00pm 28.9 23.1 -4.5 11 14.6 W 17 24 9 13 1017.4 1017.3 0.0
16/02:30pm 27.9 21.7 -5.2 11 14.2 WNW 19 28 10 15 1017.6 1017.5 0.0
16/02:00pm 28.5 23.8 -4.8 11 14.4 WNW 11 24 6 13 1017.8 1017.7 0.0
16/01:30pm 28.4 23.5 -3.7 12 14.2 WNW 13 20 7 11 1018.2 1018.1 0.0
16/01:00pm 27.5 23.0 -3.3 13 13.6 WNW 11 20 6 11 1018.6 1018.5 0.0
16/12:30pm 27.4 23.5 -1.5 15 13.2 NNE 9 15 5 8 1019.0 1018.9 0.0
16/12:00pm 27.1 21.1 -1.7 15 13.0 NNE 20 26 11 14 1019.4 1019.3 0.0
16/11:30am 26.0 20.0 1.3 20 11.7 NNE 22 28 12 15 1019.7 1019.6 0.0
16/11:00am 24.7 19.1 0.9 21 11.1 NE 20 26 11 14 1020.0 1019.9 0.0
16/10:30am 22.9 17.0 -2.6 18 11.0 NE 19 22 10 12 1020.2 1020.1 0.0
16/10:00am 21.6 16.0 -3.0 19 10.4 NE 17 22 9 12 1020.2 1020.1 0.0
16/09:30am 18.9 13.7 -2.7 23 9.0 NE 15 19 8 10 1020.2 1020.1 0.0

Other formats

Comma delimited format used in spreadsheet applications
http://www.bom.gov.au/fwo/IDQ60801/IDQ60801.95482.axf

JavaScript Object Notation format (JSON) in row-major order
http://www.bom.gov.au/fwo/IDQ60801/IDQ60801.95482.json

Data quality

Most of these data are generated automatically and are frequently updated. Quality checks on data are not normally performed. It is possible for incorrect values to appear. Refer to information at About Latest Weather Observations and please check the disclaimer before using these data.